Time;durP1;ratioP1;P1;durP2;ratioP2;P2;SDS_P1;SDS_P2;PMS_P1;PMS_P2;Temp;Humidity;BMP_temperature;BMP_pressure;BME280_temperature;BME280_humidity;BME280_pressure;Samples;Min_cycle;Max_cycle;Signal;HPM_P1;HPM_P2
2021/03/27 00:02:10;;;;;;;;;;;;;;;21.74;19.28;98669.69;5044420;28;1345;-77
2021/03/27 00:04:46;;;;;;;;;;;;;;;21.60;19.35;98653.72;5044404;28;862;-76
2021/03/27 00:07:17;;;;;;;;;;;;;;;21.67;19.06;98659.28;5045464;28;973;-77
2021/03/27 00:09:43;;;;;;;;;;;;;;;21.71;19.10;98654.38;5061579;28;902;-76
2021/03/27 00:12:10;;;;;;;;;;;;;;;22.17;18.81;98664.09;5062537;28;670;-77
2021/03/27 00:14:36;;;;;;;;;;;;;;;22.43;18.35;98653.06;5044506;28;1987;-77
2021/03/27 00:17:03;;;;;;;;;;;;;;;22.58;18.23;98654.41;5062139;28;814;-78
2021/03/27 00:19:40;;;;;;;;;;;;;;;22.28;18.75;98658.25;5044394;28;871;-77
2021/03/27 00:22:12;;;;;;;;;;;;;;;21.82;19.15;98652.16;5045082;28;1087;-77
2021/03/27 00:24:55;;;;;;;;;;;;;;;21.55;19.21;98655.03;5044578;28;571;-77
2021/03/27 00:27:29;;;;;;;;;;;;;;;21.96;19.09;98647.44;5045124;28;639;-77
2021/03/27 00:29:56;;;;;;;;;;;;;;;22.50;18.24;98652.97;5044161;28;599;-77
2021/03/27 00:32:23;;;;;;;;;;;;;;;22.54;18.20;98653.69;5044787;28;702;-77
2021/03/27 00:34:49;;;;;;;;;;;;;;;22.05;18.61;98656.19;5044064;28;1906;-77
2021/03/27 00:37:15;;;;;;;;;;;;;;;21.89;18.84;98648.38;5062086;28;822;-76
2021/03/27 00:39:44;;;;;;;;;;;;;;;21.85;19.18;98647.63;5044230;28;947;-77
2021/03/27 00:42:11;;;;;;;;;;;;;;;21.92;18.91;98655.22;5062229;28;607;-77
2021/03/27 00:44:38;;;;;;;;;;;;;;;22.30;18.45;98647.25;5043987;28;647;-76
2021/03/27 00:47:05;;;;;;;;;;;;;;;22.38;18.31;98650.75;5028679;28;1275;-77
2021/03/27 00:49:37;;;;;;;;;;;;;;;22.09;18.89;98639.94;5043837;28;928;-77
2021/03/27 00:52:04;;;;;;;;;;;;;;;21.82;19.15;98649.31;5028186;28;1159;-77
2021/03/27 00:54:32;;;;;;;;;;;;;;;21.26;19.94;98646.13;5027876;28;1948;-78
2021/03/27 00:57:00;;;;;;;;;;;;;;;22.69;17.97;98655.00;5045068;28;594;-78
2021/03/27 00:59:54;;;;;;;;;;;;;;;22.84;18.04;98646.97;5027806;28;1044;-77
2021/03/27 01:02:25;;;;;;;;;;;;;;;22.24;18.57;98646.97;5027028;28;968;-78
2021/03/27 01:05:25;;;;;;;;;;;;;;;21.59;19.35;98635.94;5008308;28;1001;-77
2021/03/27 01:08:10;;;;;;;;;;;;;;;21.71;19.31;98645.88;5057531;28;914;-77
2021/03/27 01:11:03;;;;;;;;;;;;;;;21.84;19.12;98644.00;5046032;28;1145;-77
2021/03/27 01:13:36;;;;;;;;;;;;;;;21.73;19.18;98645.44;5029914;28;1975;-77
2021/03/27 01:16:05;;;;;;;;;;;;;;;21.63;19.18;98637.91;5066007;28;634;-76
2021/03/27 01:18:35;;;;;;;;;;;;;;;22.19;18.65;98633.28;5031339;28;1158;-77
2021/03/27 01:21:06;;;;;;;;;;;;;;;22.36;18.35;98643.47;5048549;28;923;-77
2021/03/27 01:23:32;;;;;;;;;;;;;;;22.50;18.48;98638.78;5047021;28;953;-77
2021/03/27 01:26:02;;;;;;;;;;;;;;;22.09;18.70;98634.25;5065664;28;869;-77
2021/03/27 01:28:29;;;;;;;;;;;;;;;22.02;18.83;98634.38;5047623;28;857;-77
2021/03/27 01:31:03;;;;;;;;;;;;;;;21.69;19.23;98631.31;5048919;28;563;-77
2021/03/27 01:33:55;;;;;;;;;;;;;;;21.94;18.87;98639.38;5064301;28;1895;-77
2021/03/27 01:36:22;;;;;;;;;;;;;;;23.01;17.86;98630.84;5060254;28;1037;-78
2021/03/27 01:38:53;;;;;;;;;;;;;;;22.57;18.07;98641.47;5064259;28;843;-77
2021/03/27 01:41:20;;;;;;;;;;;;;;;21.89;18.98;98636.25;5065187;28;861;-77
2021/03/27 01:43:49;;;;;;;;;;;;;;;21.53;19.43;98639.69;5047322;28;675;-77
2021/03/27 01:46:14;;;;;;;;;;;;;;;21.75;19.38;98638.09;5065355;28;614;-77
2021/03/27 01:48:43;;;;;;;;;;;;;;;22.99;17.56;98633.31;5064320;28;674;-77
2021/03/27 01:51:17;;;;;;;;;;;;;;;22.43;18.17;98636.06;5065839;28;678;-77
2021/03/27 01:53:46;;;;;;;;;;;;;;;21.89;18.87;98636.25;5046464;28;1967;-77
2021/03/27 01:56:20;;;;;;;;;;;;;;;21.90;18.78;98637.84;5047921;28;847;-77
2021/03/27 01:58:52;;;;;;;;;;;;;;;21.65;19.23;98644.72;5064189;28;631;-77
2021/03/27 02:01:17;;;;;;;;;;;;;;;22.83;17.86;98642.53;5065083;28;595;-77
2021/03/27 02:03:43;;;;;;;;;;;;;;;23.15;17.57;98641.84;5064030;28;647;-77
2021/03/27 02:06:16;;;;;;;;;;;;;;;22.26;18.33;98644.50;5065101;28;1026;-78
2021/03/27 02:08:46;;;;;;;;;;;;;;;21.74;19.02;98645.00;5063560;28;807;-77
2021/03/27 02:11:16;;;;;;;;;;;;;;;21.57;19.05;98651.75;5047419;28;1171;-77
2021/03/27 02:13:42;;;;;;;;;;;;;;;22.19;18.77;98655.19;5046383;28;1906;-78
2021/03/27 02:16:26;;;;;;;;;;;;;;;22.56;17.93;98654.84;5065037;28;635;-78
2021/03/27 02:19:17;;;;;;;;;;;;;;;21.94;18.90;98655.59;5063720;28;838;-77
2021/03/27 02:21:49;;;;;;;;;;;;;;;21.95;18.77;98657.19;5026424;28;1107;-77
2021/03/27 02:24:34;;;;;;;;;;;;;;;22.04;18.50;98654.59;5062721;28;942;-77
2021/03/27 02:27:03;;;;;;;;;;;;;;;21.85;19.01;98659.75;5064846;28;642;-77
2021/03/27 02:29:46;;;;;;;;;;;;;;;21.61;19.00;98655.34;5063704;28;618;-77
2021/03/27 02:32:18;;;;;;;;;;;;;;;21.64;19.21;98657.31;5064339;28;681;-77
2021/03/27 02:34:50;;;;;;;;;;;;;;;22.57;18.11;98664.16;5063471;28;1894;-77
2021/03/27 02:37:21;;;;;;;;;;;;;;;22.72;17.62;98664.66;5064058;28;1084;-77
2021/03/27 02:39:51;;;;;;;;;;;;;;;21.93;18.73;98665.34;5063018;28;914;-77
2021/03/27 02:42:32;;;;;;;;;;;;;;;21.70;18.97;98663.28;5046889;28;702;-77
2021/03/27 02:45:01;;;;;;;;;;;;;;;21.68;19.01;98660.09;5063273;28;701;-77
2021/03/27 02:47:29;;;;;;;;;;;;;;;22.74;17.86;98663.00;5046672;28;615;-77
2021/03/27 02:50:00;;;;;;;;;;;;;;;22.70;17.87;98672.81;5045844;28;790;-77
2021/03/27 02:52:26;;;;;;;;;;;;;;;21.94;18.87;98666.94;5063948;28;881;-77
2021/03/27 02:54:51;;;;;;;;;;;;;;;21.74;18.81;98664.81;5062744;28;1967;-76
2021/03/27 02:57:37;;;;;;;;;;;;;;;21.59;19.12;98669.13;5063718;28;851;-77
2021/03/27 03:00:05;;;;;;;;;;;;;;;22.66;18.21;98674.91;5062404;28;1050;-76
2021/03/27 03:02:34;;;;;;;;;;;;;;;23.09;17.54;98683.34;5063980;28;659;-77
2021/03/27 03:05:08;;;;;;;;;;;;;;;22.30;18.33;98672.78;5062921;28;1043;-76
2021/03/27 03:07:36;;;;;;;;;;;;;;;21.98;18.53;98679.00;5063262;28;938;-77
2021/03/27 03:10:13;;;;;;;;;;;;;;;22.11;18.67;98685.66;5042104;28;1065;-77
2021/03/27 03:12:58;;;;;;;;;;;;;;;22.47;18.12;98682.19;5042722;28;1980;-77
2021/03/27 03:15:29;;;;;;;;;;;;;;;22.59;17.95;98685.19;5043158;28;1051;-77
2021/03/27 03:18:13;;;;;;;;;;;;;;;21.99;18.76;98691.94;5042342;28;710;-78
2021/03/27 03:20:41;;;;;;;;;;;;;;;21.56;19.34;98689.81;5042912;28;967;-77
2021/03/27 03:23:09;;;;;;;;;;;;;;;21.36;19.32;98684.03;5042311;28;915;-78
2021/03/27 03:25:37;;;;;;;;;;;;;;;22.10;18.79;98682.03;5042418;28;699;-77
2021/03/27 03:28:15;;;;;;;;;;;;;;;22.74;18.00;98685.69;5041771;28;1331;-77
2021/03/27 03:30:50;;;;;;;;;;;;;;;22.21;18.50;98687.50;5042685;28;626;-78
2021/03/27 03:33:33;;;;;;;;;;;;;;;21.71;19.19;98688.34;5042585;28;1898;-77
2021/03/27 03:36:00;;;;;;;;;;;;;;;21.56;19.28;98686.97;5042567;28;992;-77
2021/03/27 03:38:31;;;;;;;;;;;;;;;22.06;18.67;98691.78;5040812;28;999;-78
2021/03/27 03:40:56;;;;;;;;;;;;;;;22.86;17.71;98687.88;5043180;28;645;-77
2021/03/27 03:43:28;;;;;;;;;;;;;;;22.25;18.21;98693.13;5042567;28;762;-77
2021/03/27 03:46:12;;;;;;;;;;;;;;;21.63;19.13;98689.69;5042426;28;666;-77
2021/03/27 03:48:43;;;;;;;;;;;;;;;21.73;19.17;98690.75;5041896;28;694;-77
2021/03/27 03:51:08;;;;;;;;;;;;;;;22.50;18.33;98692.66;5042923;28;1094;-78
2021/03/27 03:53:34;;;;;;;;;;;;;;;22.63;17.83;98696.44;5041361;28;1977;-77
2021/03/27 03:56:06;;;;;;;;;;;;;;;22.15;18.47;98700.59;5043217;28;706;-77
2021/03/27 03:58:34;;;;;;;;;;;;;;;21.71;18.91;98693.19;5041977;28;852;-77
2021/03/27 04:01:10;;;;;;;;;;;;;;;21.58;18.98;98701.50;5042959;28;718;-77
2021/03/27 04:03:36;;;;;;;;;;;;;;;21.82;19.07;98710.84;5040701;28;980;-77
2021/03/27 04:06:05;;;;;;;;;;;;;;;22.68;17.76;98709.31;5042925;28;825;-79
2021/03/27 04:08:39;;;;;;;;;;;;;;;22.64;17.73;98715.09;5040823;28;1167;-77
2021/03/27 04:11:15;;;;;;;;;;;;;;;22.14;18.25;98710.31;5041919;28;993;-77
2021/03/27 04:13:41;;;;;;;;;;;;;;;21.75;18.82;98716.59;5041580;28;1981;-77
2021/03/27 04:16:12;;;;;;;;;;;;;;;21.69;18.87;98724.00;5042849;28;698;-77
2021/03/27 04:18:39;;;;;;;;;;;;;;;22.24;18.43;98725.53;5041132;28;1015;-77
2021/03/27 04:21:04;;;;;;;;;;;;;;;22.50;17.91;98726.69;5041712;28;813;-77
2021/03/27 04:23:46;;;;;;;;;;;;;;;22.44;18.20;98728.44;5041134;28;834;-77
2021/03/27 04:26:20;;;;;;;;;;;;;;;22.02;18.72;98736.41;5041956;28;707;-77
2021/03/27 04:28:55;;;;;;;;;;;;;;;21.89;18.59;98732.59;5040700;28;619;-77
2021/03/27 04:31:26;;;;;;;;;;;;;;;21.79;18.77;98740.81;5041404;28;702;-77
2021/03/27 04:34:04;;;;;;;;;;;;;;;21.76;18.82;98730.34;5040125;28;1910;-78
2021/03/27 04:36:38;;;;;;;;;;;;;;;21.54;19.17;98732.69;5040952;28;891;-77
2021/03/27 04:39:10;;;;;;;;;;;;;;;21.94;18.87;98741.41;5040820;28;755;-77
2021/03/27 04:41:49;;;;;;;;;;;;;;;22.27;18.33;98748.13;5041410;28;802;-77
2021/03/27 04:44:14;;;;;;;;;;;;;;;22.51;18.06;98739.63;5040664;28;686;-77
2021/03/27 04:46:47;;;;;;;;;;;;;;;22.23;18.21;98735.28;5041941;28;629;-76
2021/03/27 04:49:13;;;;;;;;;;;;;;;21.61;19.11;98745.97;5040114;28;866;-77
2021/03/27 04:51:44;;;;;;;;;;;;;;;21.80;18.91;98750.91;5041587;28;923;-78
2021/03/27 04:54:16;;;;;;;;;;;;;;;21.71;19.05;98749.84;5041200;28;1935;-78
2021/03/27 04:56:47;;;;;;;;;;;;;;;22.14;18.49;98750.00;5041567;28;678;-77
2021/03/27 04:59:13;;;;;;;;;;;;;;;22.44;18.46;98745.44;5040444;28;978;-77
2021/03/27 05:01:42;;;;;;;;;;;;;;;22.33;18.15;98752.09;5041817;28;631;-77
2021/03/27 05:04:26;;;;;;;;;;;;;;;22.09;18.74;98756.94;5040848;28;1063;-77
2021/03/27 05:07:05;;;;;;;;;;;;;;;21.77;19.18;98765.16;5041614;28;861;-77
2021/03/27 05:09:41;;;;;;;;;;;;;;;21.65;19.28;98763.69;5046284;28;984;-77
2021/03/27 05:12:15;;;;;;;;;;;;;;;21.65;19.18;98763.69;5044429;28;643;-77
2021/03/27 05:14:47;;;;;;;;;;;;;;;21.54;19.49;98768.69;5060902;28;1909;-76
2021/03/27 05:17:19;;;;;;;;;;;;;;;21.85;19.18;98767.44;5061162;28;872;-77
2021/03/27 05:19:56;;;;;;;;;;;;;;;22.22;18.70;98773.34;5060425;28;978;-78
2021/03/27 05:22:31;;;;;;;;;;;;;;;22.43;18.14;98772.19;5044463;28;678;-77
2021/03/27 05:25:02;;;;;;;;;;;;;;;22.33;18.31;98786.13;5060916;28;661;-77
2021/03/27 05:27:32;;;;;;;;;;;;;;;22.04;19.02;98779.28;5044414;28;634;-77
2021/03/27 05:30:10;;;;;;;;;;;;;;;21.87;19.16;98781.19;5026980;28;585;-77
2021/03/27 05:32:47;;;;;;;;;;;;;;;21.71;18.96;98784.66;5061167;28;913;-77
2021/03/27 05:35:22;;;;;;;;;;;;;;;22.09;18.70;98792.97;5043762;28;845;-77
2021/03/27 05:38:06;;;;;;;;;;;;;;;22.21;18.66;98789.56;5061416;28;869;-77
2021/03/27 05:40:55;;;;;;;;;;;;;;;22.62;18.18;98792.06;5061340;28;642;-77
2021/03/27 05:43:30;;;;;;;;;;;;;;;22.15;18.88;98796.94;5042893;28;965;-76
2021/03/27 05:46:14;;;;;;;;;;;;;;;21.94;18.97;98800.09;5061799;28;630;-77
2021/03/27 05:48:58;;;;;;;;;;;;;;;21.67;19.21;98806.56;5060291;28;991;-77
2021/03/27 05:51:38;;;;;;;;;;;;;;;21.61;19.39;98805.44;5061227;28;842;-77
2021/03/27 05:54:10;;;;;;;;;;;;;;;21.79;19.33;98802.34;5060881;28;1894;-76
2021/03/27 05:56:59;;;;;;;;;;;;;;;21.79;19.04;98800.31;5061678;28;814;-76
2021/03/27 05:59:43;;;;;;;;;;;;;;;22.25;18.60;98812.97;5043953;28;658;-76
2021/03/27 06:02:24;;;;;;;;;;;;;;;22.33;18.48;98805.97;5065071;28;687;-76
2021/03/27 06:05:05;;;;;;;;;;;;;;;22.39;18.42;98814.00;5047485;28;622;-77
2021/03/27 06:07:40;;;;;;;;;;;;;;;21.80;19.39;98816.06;5064665;28;969;-78
2021/03/27 06:10:20;;;;;;;;;;;;;;;21.84;19.38;98811.16;5063950;28;1114;-77
2021/03/27 06:12:55;;;;;;;;;;;;;;;21.65;19.47;98814.66;5047278;28;1973;-77
2021/03/27 06:15:33;;;;;;;;;;;;;;;21.61;19.40;98819.59;5064663;28;622;-77
2021/03/27 06:18:11;;;;;;;;;;;;;;;21.79;19.18;98813.66;5064497;28;710;-77
2021/03/27 06:20:44;;;;;;;;;;;;;;;22.23;18.79;98809.00;5064524;28;689;-77
2021/03/27 06:23:25;;;;;;;;;;;;;;;22.47;18.47;98821.13;5046163;28;1033;-77
2021/03/27 06:26:09;;;;;;;;;;;;;;;22.09;18.70;98810.78;5064069;28;826;-77
2021/03/27 06:28:46;;;;;;;;;;;;;;;21.72;19.44;98820.25;5063495;28;670;-78
2021/03/27 06:31:11;;;;;;;;;;;;;;;21.57;19.72;98818.84;5047558;28;670;-77
2021/03/27 06:33:56;;;;;;;;;;;;;;;21.73;19.51;98832.38;5063243;28;1906;-77
2021/03/27 06:36:40;;;;;;;;;;;;;;;22.16;19.09;98832.56;5064112;28;1005;-77
2021/03/27 06:39:20;;;;;;;;;;;;;;;22.44;18.58;98831.31;5062472;28;983;-69
2021/03/27 06:41:58;;;;;;;;;;;;;;;22.33;19.38;98831.50;5062227;28;630;-73
2021/03/27 06:44:32;;;;;;;;;;;;;;;22.08;19.76;98831.06;5062383;28;627;-72
2021/03/27 06:47:04;;;;;;;;;;;;;;;22.07;19.73;98830.25;5064528;28;631;-76
2021/03/27 06:49:48;;;;;;;;;;;;;;;22.03;19.65;98837.22;5045765;28;907;-75
2021/03/27 06:52:13;;;;;;;;;;;;;;;21.58;20.33;98838.22;5062925;28;860;-76
2021/03/27 06:55:06;;;;;;;;;;;;;;;21.71;20.21;98840.47;5062206;28;1906;-76
2021/03/27 06:57:31;;;;;;;;;;;;;;;21.72;20.19;98837.25;5063075;28;714;-77
2021/03/27 07:00:03;;;;;;;;;;;;;;;21.73;20.22;98844.50;5062742;28;666;-75
2021/03/27 07:02:35;;;;;;;;;;;;;;;21.90;19.77;98845.47;5062766;28;844;-75
2021/03/27 07:05:09;;;;;;;;;;;;;;;21.74;20.00;98851.78;5062441;28;723;-76
2021/03/27 07:07:53;;;;;;;;;;;;;;;21.77;19.91;98855.81;5062133;28;913;-76
2021/03/27 07:10:38;;;;;;;;;;;;;;;21.70;20.02;98855.88;5062061;28;1129;-77
2021/03/27 07:13:22;;;;;;;;;;;;;;;21.84;19.79;98861.34;5062209;28;2001;-77
2021/03/27 07:16:06;;;;;;;;;;;;;;;22.17;19.61;98862.50;5063356;28;619;-76
2021/03/27 07:18:32;;;;;;;;;;;;;;;22.36;19.13;98853.31;5062094;28;702;-75
2021/03/27 07:21:04;;;;;;;;;;;;;;;21.82;19.90;98858.97;5045434;28;1240;-76
2021/03/27 07:23:36;;;;;;;;;;;;;;;21.85;19.91;98863.75;5028713;28;872;-77
2021/03/27 07:26:13;;;;;;;;;;;;;;;21.68;19.72;98864.00;5063234;28;705;-77
2021/03/27 07:28:44;;;;;;;;;;;;;;;21.67;19.89;98860.38;5062017;28;695;-76
2021/03/27 07:31:29;;;;;;;;;;;;;;;21.71;19.93;98855.47;5045959;28;693;-76
2021/03/27 07:34:05;;;;;;;;;;;;;;;21.55;20.15;98867.41;5044555;28;1897;-78
2021/03/27 07:36:36;;;;;;;;;;;;;;;21.53;20.18;98871.88;5045166;28;1065;-76
2021/03/27 07:39:26;;;;;;;;;;;;;;;21.68;19.62;98867.63;5061920;28;832;-76
2021/03/27 07:41:51;;;;;;;;;;;;;;;21.50;19.87;98878.38;5062604;28;701;-77
2021/03/27 07:44:23;;;;;;;;;;;;;;;21.44;20.16;98877.25;5061925;28;705;-76
2021/03/27 07:47:07;;;;;;;;;;;;;;;21.79;19.70;98873.97;5062690;28;674;-76
2021/03/27 07:49:51;;;;;;;;;;;;;;;22.14;19.51;98880.38;5061843;28;709;-77
2021/03/27 07:52:16;;;;;;;;;;;;;;;22.21;19.26;98883.09;5062143;28;858;-77
2021/03/27 07:54:45;;;;;;;;;;;;;;;21.78;19.97;98875.19;5044246;28;1954;-77
2021/03/27 07:57:13;;;;;;;;;;;;;;;21.65;20.20;98885.47;5062168;28;714;-76
2021/03/27 07:59:48;;;;;;;;;;;;;;;21.60;20.18;98880.28;5061845;28;658;-76
2021/03/27 08:02:31;;;;;;;;;;;;;;;21.59;20.01;98884.34;5062389;28;618;-76
2021/03/27 08:05:03;;;;;;;;;;;;;;;21.65;19.94;98882.63;5061674;28;663;-76
2021/03/27 08:07:34;;;;;;;;;;;;;;;21.65;20.05;98882.63;5062155;28;952;-76
2021/03/27 08:10:06;;;;;;;;;;;;;;;21.59;20.39;98885.13;5060995;28;938;-76
2021/03/27 08:12:38;;;;;;;;;;;;;;;21.43;20.38;98886.97;5061948;28;667;-76
2021/03/27 08:15:22;;;;;;;;;;;;;;;21.58;20.26;98883.53;5061269;28;1906;-76
2021/03/27 08:18:03;;;;;;;;;;;;;;;21.50;20.11;98879.22;5061594;28;643;-77
2021/03/27 08:20:40;;;;;;;;;;;;;;;22.09;19.61;98887.31;5061417;28;721;-77
2021/03/27 08:23:31;;;;;;;;;;;;;;;22.26;19.21;98882.63;5043183;28;948;-77
2021/03/27 08:26:15;;;;;;;;;;;;;;;21.71;20.10;98880.97;5023848;28;1156;-77
2021/03/27 08:28:56;;;;;;;;;;;;;;;21.61;20.48;98881.91;5060484;28;706;-77
2021/03/27 08:31:43;;;;;;;;;;;;;;;21.67;20.11;98885.88;5061504;28;663;-77
2021/03/27 08:34:27;;;;;;;;;;;;;;;21.53;20.17;98891.69;5043773;28;1910;-76
2021/03/27 08:37:10;;;;;;;;;;;;;;;21.51;20.49;98877.19;5061237;28;623;-76
2021/03/27 08:39:35;;;;;;;;;;;;;;;21.58;20.30;98871.41;5043380;28;1017;-76
2021/03/27 08:42:19;;;;;;;;;;;;;;;21.42;20.38;98862.72;5060975;28;939;-76
2021/03/27 08:44:55;;;;;;;;;;;;;;;21.94;19.67;98860.41;5060613;28;674;-76
2021/03/27 08:47:26;;;;;;;;;;;;;;;22.27;19.42;98855.06;5061209;28;690;-76
2021/03/27 08:50:10;;;;;;;;;;;;;;;22.50;19.20;98797.59;5060609;28;619;-76
2021/03/27 08:52:51;;;;;;;;;;;;;;;22.11;19.91;98858.56;5061164;28;686;-76
2021/03/27 08:55:31;;;;;;;;;;;;;;;21.93;19.90;98875.00;5058272;28;1983;-76
2021/03/27 08:58:03;;;;;;;;;;;;;;;21.78;19.91;98874.41;5049916;28;869;-76
2021/03/27 09:00:47;;;;;;;;;;;;;;;21.78;20.15;98882.88;5040548;28;747;-76
2021/03/27 09:03:31;;;;;;;;;;;;;;;21.66;20.34;98872.94;5052375;28;1479;-75
2021/03/27 09:06:15;;;;;;;;;;;;;;;21.59;20.31;98881.50;5060924;28;631;-76
2021/03/27 09:08:41;;;;;;;;;;;;;;;21.62;20.28;98869.34;5059604;28;903;-76
2021/03/27 09:11:16;;;;;;;;;;;;;;;21.52;20.29;98873.91;5059763;28;1057;-74
2021/03/27 09:13:47;;;;;;;;;;;;;;;21.68;20.18;98876.13;5060318;28;1910;-77
2021/03/27 09:16:31;;;;;;;;;;;;;;;21.74;20.38;98871.59;5060461;28;615;-71
2021/03/27 09:19:18;;;;;;;;;;;;;;;22.11;21.20;98872.72;5059718;28;691;-73
2021/03/27 09:21:59;;;;;;;;;;;;;;;21.91;21.14;98878.25;5060420;28;706;-77
2021/03/27 09:24:35;;;;;;;;;;;;;;;21.71;21.12;98868.81;5059128;28;885;-76
2021/03/27 09:27:19;;;;;;;;;;;;;;;21.67;21.07;98866.03;5042214;28;848;-75
2021/03/27 09:30:02;;;;;;;;;;;;;;;21.72;20.90;98859.91;5057890;28;840;-74
2021/03/27 09:32:27;;;;;;;;;;;;;;;21.64;21.12;98863.25;5042126;28;895;-74
2021/03/27 09:35:11;;;;;;;;;;;;;;;22.08;20.41;98870.72;5060767;28;1910;-75
2021/03/27 09:37:39;;;;;;;;;;;;;;;22.33;20.12;98862.69;5061857;28;880;-75
2021/03/27 09:40:13;;;;;;;;;;;;;;;22.33;19.99;98854.19;5046203;28;890;-75
2021/03/27 09:42:42;;;;;;;;;;;;;;;21.93;20.69;98858.00;5056019;28;925;-76
2021/03/27 09:45:19;;;;;;;;;;;;;;;21.76;20.66;98855.00;5063264;28;671;-74
2021/03/27 09:47:56;;;;;;;;;;;;;;;21.77;20.88;98844.47;5035027;28;709;-74
2021/03/27 09:50:27;;;;;;;;;;;;;;;21.71;20.75;98846.97;5043236;28;648;-75
2021/03/27 09:53:00;;;;;;;;;;;;;;;21.78;20.43;98848.91;5043488;28;667;-74
2021/03/27 09:55:42;;;;;;;;;;;;;;;21.70;20.70;98850.22;5043016;28;1003;-75
2021/03/27 09:58:11;;;;;;;;;;;;;;;21.63;20.68;98851.13;5031659;28;928;-75
2021/03/27 10:00:50;;;;;;;;;;;;;;;21.65;20.72;98847.84;5062970;28;846;-74
2021/03/27 10:03:33;;;;;;;;;;;;;;;22.03;20.17;98840.03;5062836;28;755;-77
2021/03/27 10:06:10;;;;;;;;;;;;;;;22.32;19.90;98841.22;5064239;28;654;-77
2021/03/27 10:08:40;;;;;;;;;;;;;;;22.36;19.62;98839.13;5045942;28;643;-76
2021/03/27 10:11:05;;;;;;;;;;;;;;;22.07;20.20;98840.75;5045680;28;942;-75
2021/03/27 10:13:40;;;;;;;;;;;;;;;21.87;20.38;98832.19;5062537;28;1965;-77
2021/03/27 10:16:07;;;;;;;;;;;;;;;21.61;20.80;98841.47;5063649;28;629;-77
2021/03/27 10:18:38;;;;;;;;;;;;;;;21.65;20.68;98834.50;5046038;28;678;-77
2021/03/27 10:21:22;;;;;;;;;;;;;;;21.65;20.37;98831.66;5046735;28;695;-77
2021/03/27 10:23:56;;;;;;;;;;;;;;;21.74;20.67;98831.94;5063262;28;666;-77
2021/03/27 10:26:25;;;;;;;;;;;;;;;21.59;20.96;98827.69;5063347;28;1084;-77
2021/03/27 10:28:52;;;;;;;;;;;;;;;21.83;20.34;98832.22;5062875;28;911;-77
2021/03/27 10:31:24;;;;;;;;;;;;;;;21.69;20.85;98825.94;5045784;28;647;-76
2021/03/27 10:34:08;;;;;;;;;;;;;;;21.58;20.55;98826.91;5062646;28;1901;-76
2021/03/27 10:36:39;;;;;;;;;;;;;;;22.22;20.04;98830.03;5063049;28;645;-75
2021/03/27 10:39:05;;;;;;;;;;;;;;;22.32;19.67;98829.88;5045196;28;1317;-75
2021/03/27 10:41:40;;;;;;;;;;;;;;;22.16;20.03;98826.91;5062799;28;950;-77
2021/03/27 10:44:26;;;;;;;;;;;;;;;21.99;20.24;98822.28;5062586;28;863;-76
2021/03/27 10:47:05;;;;;;;;;;;;;;;21.98;20.39;98826.34;5062843;28;645;-77
2021/03/27 10:50:09;;;;;;;;;;;;;;;21.81;20.75;98829.03;5029021;28;1177;-76
2021/03/27 10:52:40;;;;;;;;;;;;;;;21.72;20.46;98820.25;5002194;28;1139;-77
2021/03/27 10:55:11;;;;;;;;;;;;;;;21.66;20.52;98816.28;5002264;28;1918;-79
2021/03/27 10:57:46;;;;;;;;;;;;;;;21.84;20.39;98811.16;5035554;28;872;-79
2021/03/27 11:00:30;;;;;;;;;;;;;;;21.67;20.76;98815.06;5062742;28;866;-78
2021/03/27 11:02:56;;;;;;;;;;;;;;;21.82;20.30;98813.63;5063021;28;694;-79
2021/03/27 11:05:21;;;;;;;;;;;;;;;22.27;20.12;98819.00;5063587;28;635;-77
2021/03/27 11:07:48;;;;;;;;;;;;;;;22.40;19.94;98818.44;5063163;28;690;-77
2021/03/27 11:10:19;;;;;;;;;;;;;;;22.04;20.22;98816.13;5061739;28;1009;-76
2021/03/27 11:12:51;;;;;;;;;;;;;;;21.94;20.33;98814.25;5062064;28;883;-75
2021/03/27 11:15:22;;;;;;;;;;;;;;;21.74;20.44;98800.78;5045289;28;1906;-77
2021/03/27 11:17:54;;;;;;;;;;;;;;;21.88;20.45;98811.13;5062286;28;706;-75
2021/03/27 11:20:38;;;;;;;;;;;;;;;21.83;20.65;98808.75;5062271;28;638;-77
2021/03/27 11:23:06;;;;;;;;;;;;;;;21.65;20.63;98809.00;5062020;28;714;-76
2021/03/27 11:25:32;;;;;;;;;;;;;;;21.65;20.83;98813.88;5044935;28;796;-77
2021/03/27 11:28:03;;;;;;;;;;;;;;;21.56;20.88;98811.56;5061968;28;887;-77
2021/03/27 11:30:47;;;;;;;;;;;;;;;21.99;20.39;98799.63;5062226;28;730;-76
2021/03/27 11:33:22;;;;;;;;;;;;;;;22.32;20.27;98807.19;5061717;28;1971;-77
2021/03/27 11:36:02;;;;;;;;;;;;;;;21.98;20.57;98795.19;5062698;28;706;-77
2021/03/27 11:38:44;;;;;;;;;;;;;;;21.85;20.64;98801.41;5044637;28;674;-77
2021/03/27 11:41:32;;;;;;;;;;;;;;;21.62;21.17;98801.38;5062209;28;960;-76
2021/03/27 11:44:16;;;;;;;;;;;;;;;21.44;21.09;98792.31;5061624;28;884;-77
2021/03/27 11:47:02;;;;;;;;;;;;;;;21.78;20.88;98793.03;5062222;28;627;-77
2021/03/27 11:49:41;;;;;;;;;;;;;;;21.53;21.15;98798.25;5044333;28;730;-77
2021/03/27 11:52:09;;;;;;;;;;;;;;;21.62;20.88;98798.53;5044978;28;672;-77
2021/03/27 11:54:38;;;;;;;;;;;;;;;21.52;20.97;98796.66;5044199;28;1921;-75
2021/03/27 11:57:15;;;;;;;;;;;;;;;21.59;21.01;98788.84;5061302;28;697;-77
2021/03/27 12:02:31;;;;;;;;;;;;;;;22.32;20.29;98795.84;5061538;28;862;-77
2021/03/27 12:05:15;;;;;;;;;;;;;;;21.98;20.55;98792.34;5061068;28;921;-77
2021/03/27 12:07:59;;;;;;;;;;;;;;;21.71;20.72;98790.31;5061538;28;682;-77
2021/03/27 12:10:30;;;;;;;;;;;;;;;21.65;20.83;98783.50;5061740;28;902;-76
2021/03/27 12:13:07;;;;;;;;;;;;;;;21.83;20.69;98774.75;5044220;28;717;-77
2021/03/27 12:15:47;;;;;;;;;;;;;;;21.96;20.57;98772.13;5027850;28;1131;-77
2021/03/27 12:18:16;;;;;;;;;;;;;;;22.31;20.00;98780.06;5043521;28;874;-77
2021/03/27 12:20:45;;;;;;;;;;;;;;;22.33;20.22;98774.78;5043859;28;848;-77
2021/03/27 12:23:49;;;;;;;;;;;;;;;22.16;20.56;98775.06;5043898;28;658;-77
2021/03/27 12:26:25;;;;;;;;;;;;;;;21.95;20.63;98765.66;5001222;28;978;-78
2021/03/27 12:29:02;;;;;;;;;;;;;;;21.87;20.65;98769.84;4984070;28;663;-76
2021/03/27 12:31:48;;;;;;;;;;;;;;;21.58;20.93;98764.59;5038388;28;994;-77
2021/03/27 12:34:20;;;;;;;;;;;;;;;21.59;21.07;98757.69;5060521;28;1981;-77
2021/03/27 12:37:04;;;;;;;;;;;;;;;21.75;20.83;98770.41;5060520;28;806;-76
2021/03/27 12:39:32;;;;;;;;;;;;;;;21.55;21.01;98767.47;5060466;28;732;-76
2021/03/27 12:42:16;;;;;;;;;;;;;;;21.64;20.74;98773.41;5060826;28;634;-76
2021/03/27 12:44:54;;;;;;;;;;;;;;;21.68;20.80;98774.16;5060573;28;646;-77
2021/03/27 12:47:30;;;;;;;;;;;;;;;21.88;20.78;98776.31;5061201;28;688;-77
2021/03/27 12:49:56;;;;;;;;;;;;;;;22.28;20.34;98766.78;5060226;28;821;-77
2021/03/27 12:52:40;;;;;;;;;;;;;;;22.22;20.16;98771.31;5060771;28;891;-77
2021/03/27 12:55:06;;;;;;;;;;;;;;;21.75;20.77;98774.06;5060884;28;1909;-77
2021/03/27 12:57:34;;;;;;;;;;;;;;;21.82;20.49;98765.47;5061019;28;891;-77
2021/03/27 13:00:12;;;;;;;;;;;;;;;21.36;21.34;98773.81;5060314;28;706;-77
2021/03/27 13:02:44;;;;;;;;;;;;;;;21.40;21.46;98774.56;5043255;28;594;-76
2021/03/27 13:05:14;;;;;;;;;;;;;;;21.44;20.99;98776.13;5060543;28;690;-77
2021/03/27 13:07:47;;;;;;;;;;;;;;;21.71;20.92;98773.31;5043388;28;857;-77
2021/03/27 13:10:19;;;;;;;;;;;;;;;21.56;21.14;98775.56;5042850;28;1097;-78
2021/03/27 13:12:57;;;;;;;;;;;;;;;21.89;20.80;98766.59;5045437;28;843;-78
2021/03/27 13:15:28;;;;;;;;;;;;;;;22.28;20.37;98769.63;5044492;28;1898;-74
2021/03/27 13:18:00;;;;;;;;;;;;;;;22.18;20.36;98764.13;5043998;28;729;-75
2021/03/27 13:20:30;;;;;;;;;;;;;;;21.94;20.65;98763.25;5043623;28;1143;-75
2021/03/27 13:23:00;;;;;;;;;;;;;;;21.72;21.03;98763.59;5042818;28;932;-75
2021/03/27 13:25:27;;;;;;;;;;;;;;;21.67;20.98;98760.44;5043527;28;819;-76
2021/03/27 13:27:56;;;;;;;;;;;;;;;21.94;20.75;98768.94;5043896;28;690;-77
2021/03/27 13:30:22;;;;;;;;;;;;;;;21.93;20.85;98762.47;5044641;28;1170;-76
2021/03/27 13:32:52;;;;;;;;;;;;;;;21.80;20.89;98758.59;5042057;28;821;-77
2021/03/27 13:35:21;;;;;;;;;;;;;;;21.66;20.96;98765.31;5042921;28;1914;-76
2021/03/27 13:37:51;;;;;;;;;;;;;;;21.60;21.04;98755.66;5043775;28;864;-77
2021/03/27 13:40:28;;;;;;;;;;;;;;;21.68;20.75;98756.38;5042892;28;977;-78
2021/03/27 13:43:12;;;;;;;;;;;;;;;21.92;20.69;98748.72;5043327;28;658;-76
2021/03/27 13:45:38;;;;;;;;;;;;;;;22.27;20.35;98747.34;5044086;28;654;-76
2021/03/27 13:48:22;;;;;;;;;;;;;;;22.15;20.37;98754.44;5043611;28;837;-76